Time;durP1;ratioP1;P1;durP2;ratioP2;P2;SDS_P1;SDS_P2;PMS_P1;PMS_P2;Temp;Humidity;BMP_temperature;BMP_pressure;BME280_temperature;BME280_humidity;BME280_pressure;Samples;Min_cycle;Max_cycle;Signal;HPM_P1;HPM_P2
2023/07/03 00:00:12;;;;;;;6.72;2.53;;;18.50;98.10;;;;;;5017667;28;20189;-65
2023/07/03 00:02:43;;;;;;;7.43;2.35;;;18.50;98.30;;;;;;5016321;28;20209;-67
2023/07/03 00:05:12;;;;;;;8.07;2.75;;;18.40;98.30;;;;;;5033061;28;20194;-66
2023/07/03 00:07:39;;;;;;;5.90;2.38;;;18.40;98.50;;;;;;5027819;28;20198;-66
2023/07/03 00:10:05;;;;;;;6.90;2.25;;;18.40;98.60;;;;;;5017693;28;20261;-66
2023/07/03 00:12:34;;;;;;;6.90;2.55;;;18.40;98.60;;;;;;5035624;28;20178;-63
2023/07/03 00:15:03;;;;;;;7.72;2.25;;;18.40;98.40;;;;;;5036036;28;20201;-66
2023/07/03 00:17:28;;;;;;;7.60;2.38;;;18.30;98.70;;;;;;5023656;28;20448;-63
2023/07/03 00:19:57;;;;;;;7.38;2.58;;;18.30;98.80;;;;;;5015855;28;20521;-66
2023/07/03 00:22:22;;;;;;;6.53;2.45;;;18.30;98.80;;;;;;5024820;28;20189;-65
2023/07/03 00:24:50;;;;;;;6.55;2.05;;;18.30;98.90;;;;;;5021041;28;20198;-66
2023/07/03 00:27:18;;;;;;;4.25;2.30;;;18.20;99.00;;;;;;5027292;28;20169;-67
2023/07/03 00:29:44;;;;;;;5.80;2.15;;;18.20;99.10;;;;;;5015422;28;20204;-67
2023/07/03 00:32:09;;;;;;;4.65;2.00;;;18.20;99.20;;;;;;5034762;28;20193;-67
2023/07/03 00:34:37;;;;;;;7.43;2.33;;;18.20;99.30;;;;;;5013114;28;20177;-65
2023/07/03 00:37:03;;;;;;;8.50;2.63;;;18.20;99.40;;;;;;5017726;28;20181;-65
2023/07/03 00:39:29;;;;;;;7.38;2.83;;;18.20;99.40;;;;;;5019723;28;20201;-66
2023/07/03 00:41:57;;;;;;;7.28;2.47;;;18.10;99.40;;;;;;5023284;28;20169;-64
2023/07/03 00:44:23;;;;;;;7.85;2.35;;;18.10;99.50;;;;;;5012352;28;20204;-66
2023/07/03 00:46:50;;;;;;;8.27;2.53;;;18.10;99.50;;;;;;5021726;28;20208;-67
2023/07/03 00:49:20;;;;;;;6.10;2.38;;;18.10;99.60;;;;;;5020086;28;20202;-65
2023/07/03 00:51:55;;;;;;;6.30;2.55;;;18.00;99.50;;;;;;5017211;28;20186;-65
2023/07/03 00:54:21;;;;;;;6.70;2.17;;;18.00;99.40;;;;;;5017632;28;20189;-65
2023/07/03 00:56:47;;;;;;;7.35;2.28;;;18.00;99.80;;;;;;5017157;28;20197;-65
2023/07/03 00:59:13;;;;;;;5.47;2.17;;;18.00;99.90;;;;;;5018411;28;20325;-66
2023/07/03 01:01:47;;;;;;;6.57;2.53;;;18.00;99.90;;;;;;5029834;28;20273;-66
2023/07/03 01:04:36;;;;;;;6.75;2.50;;;17.90;99.70;;;;;;5001841;28;20229;-65
2023/07/03 01:07:09;;;;;;;7.10;2.25;;;17.90;99.70;;;;;;5017088;28;20225;-65
2023/07/03 01:09:44;;;;;;;6.53;2.42;;;17.90;99.80;;;;;;5033281;28;20194;-66
2023/07/03 01:12:13;;;;;;;6.72;2.30;;;17.90;99.90;;;;;;5017297;28;20220;-67
2023/07/03 01:14:43;;;;;;;3.97;2.15;;;17.80;99.90;;;;;;5032846;28;20208;-66
2023/07/03 01:17:10;;;;;;;9.38;2.47;;;17.80;99.90;;;;;;5027509;28;20198;-65
2023/07/03 01:19:38;;;;;;;6.00;2.35;;;17.80;99.90;;;;;;5009909;28;20197;-66
2023/07/03 01:22:20;;;;;;;7.35;2.58;;;17.80;99.90;;;;;;5028822;28;20376;-66
2023/07/03 01:25:01;;;;;;;7.13;2.22;;;17.70;99.90;;;;;;5032135;28;20198;-65
2023/07/03 01:27:31;;;;;;;6.32;2.00;;;17.70;99.90;;;;;;5009877;28;20189;-67
2023/07/03 01:29:58;;;;;;;7.07;2.35;;;17.70;99.90;;;;;;5018035;28;20170;-66
2023/07/03 01:32:27;;;;;;;8.00;2.53;;;17.70;99.90;;;;;;5030986;28;20188;-66
2023/07/03 01:34:55;;;;;;;5.57;2.28;;;17.60;99.90;;;;;;5053313;28;20193;-62
2023/07/03 01:37:25;;;;;;;8.70;2.80;;;17.60;99.90;;;;;;5035523;28;20170;-65
2023/07/03 01:39:52;;;;;;;6.00;2.30;;;17.50;99.90;;;;;;5019925;28;20185;-66
2023/07/03 01:42:20;;;;;;;6.38;2.30;;;17.50;99.90;;;;;;5020715;28;20424;-65
2023/07/03 01:44:48;;;;;;;7.65;2.65;;;17.50;99.90;;;;;;5036465;28;21718;-66
2023/07/03 01:47:16;;;;;;;7.95;2.50;;;17.40;99.90;;;;;;5018791;28;20194;-66
2023/07/03 01:49:47;;;;;;;6.55;2.25;;;17.40;99.90;;;;;;5022221;28;20194;-66
2023/07/03 01:52:25;;;;;;;6.78;2.53;;;17.30;99.90;;;;;;5020413;28;20392;-66
2023/07/03 01:55:05;;;;;;;8.30;2.50;;;17.30;99.90;;;;;;5013986;28;20269;-64
2023/07/03 01:57:50;;;;;;;7.25;2.45;;;17.20;99.90;;;;;;5022919;28;20200;-64
2023/07/03 02:00:27;;;;;;;7.72;2.28;;;17.10;99.90;;;;;;5032641;28;20213;-67
2023/07/03 02:02:56;;;;;;;7.53;2.70;;;17.00;99.90;;;;;;5034696;28;20482;-64
2023/07/03 02:05:28;;;;;;;7.78;2.40;;;16.90;99.90;;;;;;5024877;28;20208;-67
2023/07/03 02:08:00;;;;;;;7.32;2.70;;;16.90;99.90;;;;;;5014833;28;20406;-67
2023/07/03 02:10:28;;;;;;;6.10;2.72;;;16.80;99.90;;;;;;5024816;28;20185;-67
2023/07/03 02:12:54;;;;;;;9.05;2.30;;;16.70;99.90;;;;;;5018331;28;20525;-64
2023/07/03 02:15:20;;;;;;;7.00;2.67;;;16.70;99.90;;;;;;5019400;28;20171;-65
2023/07/03 02:17:45;;;;;;;5.90;2.00;;;16.60;99.90;;;;;;5018795;28;20202;-66
2023/07/03 02:20:14;;;;;;;5.63;2.15;;;16.60;99.90;;;;;;5013622;28;20208;-66
2023/07/03 02:22:41;;;;;;;6.90;2.30;;;16.60;99.90;;;;;;5024210;28;20188;-66
2023/07/03 02:25:10;;;;;;;7.35;2.50;;;16.50;99.90;;;;;;5036328;28;20214;-66
2023/07/03 02:27:36;;;;;;;6.60;2.50;;;16.50;99.90;;;;;;5031063;28;20293;-66
2023/07/03 02:30:04;;;;;;;7.05;2.60;;;16.40;99.90;;;;;;5022395;28;20265;-62
2023/07/03 02:32:35;;;;;;;7.35;2.45;;;16.40;99.90;;;;;;5015688;28;20498;-64
2023/07/03 02:35:05;;;;;;;5.28;2.35;;;16.40;99.90;;;;;;5022695;28;20197;-65
2023/07/03 02:37:33;;;;;;;5.70;2.10;;;16.30;99.90;;;;;;5022173;28;20178;-66
2023/07/03 02:39:59;;;;;;;5.78;2.33;;;16.30;99.90;;;;;;5018096;28;20182;-67
2023/07/03 02:42:29;;;;;;;5.38;1.90;;;16.30;99.90;;;;;;5019562;28;20228;-62
2023/07/03 02:44:57;;;;;;;6.93;2.10;;;16.30;99.90;;;;;;5017811;28;20221;-66
2023/07/03 02:47:25;;;;;;;6.13;2.20;;;16.30;99.90;;;;;;5024059;28;20321;-65
2023/07/03 02:49:51;;;;;;;5.85;2.20;;;16.20;99.90;;;;;;5019420;28;20356;-67
2023/07/03 02:52:17;;;;;;;6.43;2.50;;;16.20;99.90;;;;;;5024195;28;20185;-63
2023/07/03 02:54:45;;;;;;;9.10;2.60;;;16.20;99.90;;;;;;5021984;28;20206;-66
2023/07/03 02:57:13;;;;;;;6.50;2.35;;;16.20;99.90;;;;;;5018385;28;20243;-66
2023/07/03 02:59:41;;;;;;;6.55;2.17;;;16.20;99.90;;;;;;5028268;28;20267;-66
2023/07/03 03:02:06;;;;;;;7.53;2.35;;;16.20;99.90;;;;;;5011721;28;20202;-66
2023/07/03 03:04:32;;;;;;;7.97;2.25;;;16.10;99.90;;;;;;5016506;28;20248;-67
2023/07/03 03:06:58;;;;;;;7.75;2.90;;;16.10;99.90;;;;;;5013584;28;20174;-66
2023/07/03 03:09:23;;;;;;;7.68;2.33;;;16.10;99.90;;;;;;5028893;28;20177;-67
2023/07/03 03:11:49;;;;;;;7.68;2.30;;;16.10;99.90;;;;;;5034984;28;20228;-66
2023/07/03 03:14:19;;;;;;;7.15;2.42;;;16.00;99.90;;;;;;5019032;28;20194;-66
2023/07/03 03:16:47;;;;;;;9.00;2.65;;;16.10;99.90;;;;;;5031418;28;20174;-66
2023/07/03 03:19:12;;;;;;;7.68;2.38;;;16.00;99.90;;;;;;5023825;28;20178;-67
2023/07/03 03:21:38;;;;;;;6.80;2.50;;;16.00;99.90;;;;;;5003994;28;20252;-66
2023/07/03 03:24:06;;;;;;;7.43;2.55;;;16.00;99.90;;;;;;5028286;28;20485;-66
2023/07/03 03:26:34;;;;;;;7.75;2.47;;;16.00;99.90;;;;;;5020908;28;20300;-67
2023/07/03 03:29:00;;;;;;;8.05;2.60;;;16.00;99.90;;;;;;5026543;28;20201;-66
2023/07/03 03:31:26;;;;;;;7.47;2.40;;;15.90;99.90;;;;;;5018898;28;20166;-67
2023/07/03 03:33:51;;;;;;;7.65;2.45;;;15.90;99.90;;;;;;5015632;28;20293;-67
2023/07/03 03:36:17;;;;;;;6.93;2.30;;;15.90;99.90;;;;;;5024735;28;20178;-66
2023/07/03 03:38:42;;;;;;;8.10;2.20;;;15.90;99.90;;;;;;5017404;28;20206;-66
2023/07/03 03:41:08;;;;;;;7.68;2.50;;;15.90;99.90;;;;;;5021640;28;20174;-66
2023/07/03 03:43:34;;;;;;;5.90;2.25;;;15.90;99.90;;;;;;5024665;28;20178;-67
2023/07/03 03:46:01;;;;;;;6.88;2.20;;;15.80;99.90;;;;;;5033150;28;20217;-67
2023/07/03 03:48:29;;;;;;;5.57;2.45;;;15.80;99.90;;;;;;5016698;28;20190;-66
2023/07/03 03:50:55;;;;;;;9.30;2.40;;;15.80;99.90;;;;;;5016063;28;20217;-67
2023/07/03 03:53:26;;;;;;;8.68;2.47;;;15.80;99.90;;;;;;5024423;28;20224;-66
2023/07/03 03:55:52;;;;;;;6.65;2.65;;;15.80;99.90;;;;;;5020924;28;20185;-66
2023/07/03 03:58:21;;;;;;;7.97;2.70;;;15.80;99.90;;;;;;5017014;28;20186;-66
2023/07/03 04:00:50;;;;;;;7.35;2.47;;;15.80;99.90;;;;;;5021110;28;20206;-67
2023/07/03 04:03:16;;;;;;;9.50;2.72;;;15.80;99.90;;;;;;5022835;28;20227;-66
2023/07/03 04:05:43;;;;;;;9.43;2.60;;;15.80;99.90;;;;;;5016835;28;20248;-67
2023/07/03 04:08:11;;;;;;;10.70;2.67;;;15.80;99.90;;;;;;5028250;28;20210;-66
2023/07/03 04:10:39;;;;;;;7.35;2.65;;;15.80;99.90;;;;;;5016545;28;20192;-67
2023/07/03 04:13:05;;;;;;;7.78;2.38;;;15.80;99.90;;;;;;5021186;28;20182;-66
2023/07/03 04:15:33;;;;;;;5.97;2.45;;;15.80;99.90;;;;;;5018258;28;20236;-66
2023/07/03 04:17:59;;;;;;;10.30;2.67;;;15.80;99.90;;;;;;5030521;28;20186;-66
2023/07/03 04:20:27;;;;;;;9.23;2.78;;;15.80;99.90;;;;;;5017367;28;20288;-67
2023/07/03 04:22:53;;;;;;;6.22;2.08;;;15.80;99.90;;;;;;5019234;28;20253;-66
2023/07/03 04:25:19;;;;;;;8.40;2.67;;;15.80;99.90;;;;;;5019845;28;20284;-66
2023/07/03 04:27:49;;;;;;;5.90;2.22;;;15.80;99.90;;;;;;5016344;28;20198;-66
2023/07/03 04:30:15;;;;;;;7.13;2.58;;;15.80;99.90;;;;;;5018542;28;20177;-66
2023/07/03 04:32:54;;;;;;;8.65;2.83;;;15.90;99.90;;;;;;5044930;28;20170;-67
2023/07/03 04:35:21;;;;;;;11.02;2.70;;;15.90;99.90;;;;;;5003155;28;20212;-66
2023/07/03 04:37:49;;;;;;;8.63;2.95;;;15.90;99.90;;;;;;5010433;28;20186;-67
2023/07/03 04:40:18;;;;;;;9.95;2.33;;;15.90;99.90;;;;;;5028658;28;20269;-66
2023/07/03 04:42:44;;;;;;;10.18;2.67;;;15.90;99.90;;;;;;5019954;28;20174;-68
2023/07/03 04:45:10;;;;;;;8.38;2.53;;;16.00;99.90;;;;;;5031825;28;20211;-65
2023/07/03 04:47:39;;;;;;;7.25;2.60;;;16.00;99.90;;;;;;5021155;28;20189;-66
2023/07/03 04:50:09;;;;;;;8.23;2.40;;;16.10;99.90;;;;;;5024374;28;20186;-66
2023/07/03 04:52:36;;;;;;;5.80;2.30;;;16.10;99.90;;;;;;5021826;28;20263;-68
2023/07/03 04:55:05;;;;;;;11.10;2.33;;;16.10;99.90;;;;;;5023384;28;20240;-66
2023/07/03 04:57:31;;;;;;;6.93;2.40;;;16.10;99.90;;;;;;5014739;28;20198;-69
2023/07/03 05:00:00;;;;;;;10.20;2.90;;;16.20;99.90;;;;;;5022722;28;20182;-68
2023/07/03 05:02:28;;;;;;;6.95;2.40;;;16.20;99.90;;;;;;5034188;28;20224;-67
2023/07/03 05:04:54;;;;;;;6.70;2.53;;;16.30;99.90;;;;;;5023806;28;20209;-68
2023/07/03 05:07:19;;;;;;;8.13;2.60;;;16.30;99.90;;;;;;5034122;28;20170;-68
2023/07/03 05:09:45;;;;;;;9.77;2.80;;;16.40;99.90;;;;;;5017584;28;20174;-68
2023/07/03 05:12:11;;;;;;;7.70;2.50;;;16.40;99.90;;;;;;5014635;28;20178;-67
2023/07/03 05:14:37;;;;;;;10.02;2.90;;;16.50;99.90;;;;;;5017536;28;20206;-68
2023/07/03 05:17:03;;;;;;;7.30;2.38;;;16.50;99.90;;;;;;5020522;28;20170;-69
2023/07/03 05:19:31;;;;;;;6.85;2.45;;;16.60;99.90;;;;;;5037098;28;20184;-68
2023/07/03 05:21:56;;;;;;;8.65;2.45;;;16.60;99.90;;;;;;5037785;28;20201;-67
2023/07/03 05:24:22;;;;;;;8.48;2.80;;;16.70;99.90;;;;;;5037494;28;20285;-67
2023/07/03 05:26:48;;;;;;;6.40;2.60;;;16.70;99.90;;;;;;5037016;28;20201;-68
2023/07/03 05:29:16;;;;;;;9.02;2.63;;;16.80;99.90;;;;;;5022434;28;20180;-68
2023/07/03 05:31:44;;;;;;;9.65;2.80;;;16.80;99.90;;;;;;5035041;28;20237;-69
2023/07/03 05:34:12;;;;;;;10.20;2.70;;;16.90;99.90;;;;;;5036059;28;20206;-67
2023/07/03 05:36:37;;;;;;;8.63;2.75;;;16.90;99.90;;;;;;5020593;28;20194;-67
2023/07/03 05:39:03;;;;;;;13.63;3.92;;;17.00;99.90;;;;;;5024153;28;20191;-67
2023/07/03 05:41:29;;;;;;;7.38;2.97;;;17.00;99.90;;;;;;5021126;28;20268;-67
2023/07/03 05:43:54;;;;;;;10.27;3.30;;;17.00;99.90;;;;;;5020344;28;20192;-68
2023/07/03 05:46:22;;;;;;;7.38;2.70;;;17.00;99.90;;;;;;5022322;28;20254;-68
2023/07/03 05:48:49;;;;;;;12.35;2.70;;;17.10;99.90;;;;;;5033143;28;20186;-67
2023/07/03 05:51:14;;;;;;;11.82;3.30;;;17.10;99.90;;;;;;5021775;28;20224;-68
2023/07/03 05:53:40;;;;;;;12.80;3.20;;;17.10;99.90;;;;;;5036533;28;20198;-69
2023/07/03 05:56:06;;;;;;;9.07;2.88;;;17.20;99.90;;;;;;5026157;28;20210;-67
2023/07/03 05:58:36;;;;;;;9.43;3.00;;;17.20;99.90;;;;;;5023390;28;20182;-67
2023/07/03 06:01:03;;;;;;;11.48;3.42;;;17.20;99.90;;;;;;5018229;28;20193;-68
2023/07/03 06:03:31;;;;;;;10.77;2.85;;;17.20;99.90;;;;;;5037094;28;20178;-68
2023/07/03 06:05:57;;;;;;;9.07;3.05;;;17.30;99.90;;;;;;5020574;28;20296;-68
2023/07/03 06:08:23;;;;;;;11.40;3.40;;;17.40;99.90;;;;;;5020716;28;20197;-68
2023/07/03 06:10:49;;;;;;;10.32;3.50;;;17.40;99.90;;;;;;5014999;28;20174;-66
2023/07/03 06:13:15;;;;;;;9.02;3.42;;;17.40;99.90;;;;;;5031401;28;20185;-67
2023/07/03 06:15:42;;;;;;;11.95;3.65;;;17.50;99.90;;;;;;5022342;28;20202;-67
2023/07/03 06:18:07;;;;;;;9.02;3.42;;;17.60;99.90;;;;;;5019240;28;20231;-68
2023/07/03 06:20:40;;;;;;;8.95;3.20;;;17.60;99.90;;;;;;5019739;28;20186;-67
2023/07/03 06:23:06;;;;;;;12.57;3.80;;;17.60;99.90;;;;;;5023244;28;20245;-66
2023/07/03 06:25:36;;;;;;;12.80;3.17;;;17.60;99.90;;;;;;5032237;28;20197;-66
2023/07/03 06:28:02;;;;;;;10.40;3.33;;;17.70;99.90;;;;;;5014855;28;20255;-66
2023/07/03 06:30:28;;;;;;;7.97;2.90;;;17.70;99.90;;;;;;5018669;28;20228;-66
2023/07/03 06:32:54;;;;;;;10.55;3.20;;;17.80;99.90;;;;;;5026734;28;20201;-67
2023/07/03 06:35:21;;;;;;;12.32;3.03;;;17.80;99.90;;;;;;5027790;28;20173;-67
2023/07/03 06:37:47;;;;;;;10.93;3.75;;;17.90;99.90;;;;;;5019494;28;20178;-66
2023/07/03 06:40:15;;;;;;;10.63;3.35;;;17.90;99.90;;;;;;5035744;28;20281;-67
2023/07/03 06:42:44;;;;;;;7.22;2.83;;;17.90;99.90;;;;;;5019291;28;20193;-66
2023/07/03 06:45:12;;;;;;;7.80;2.60;;;18.00;99.90;;;;;;5035749;28;20223;-67
2023/07/03 06:47:38;;;;;;;11.35;2.85;;;18.00;99.90;;;;;;5017335;28;20194;-68
2023/07/03 06:50:04;;;;;;;7.25;2.90;;;18.10;99.90;;;;;;5019657;28;20202;-67
2023/07/03 06:52:32;;;;;;;8.48;3.20;;;18.10;99.90;;;;;;5018728;28;20182;-67
2023/07/03 06:54:58;;;;;;;9.15;2.88;;;18.20;99.90;;;;;;5018731;28;20185;-66
2023/07/03 06:57:24;;;;;;;7.88;3.25;;;18.20;99.90;;;;;;5019071;28;20170;-67
2023/07/03 06:59:52;;;;;;;10.95;3.25;;;18.30;99.90;;;;;;5035434;28;20205;-66
2023/07/03 07:02:18;;;;;;;10.45;3.60;;;18.30;99.90;;;;;;5019065;28;20282;-66
2023/07/03 07:04:48;;;;;;;7.35;2.95;;;18.30;99.90;;;;;;5009782;28;20410;-67
2023/07/03 07:07:14;;;;;;;11.00;3.80;;;18.40;99.90;;;;;;5031633;28;20232;-67
2023/07/03 07:09:39;;;;;;;10.63;3.33;;;18.40;99.90;;;;;;5035286;28;20205;-67
2023/07/03 07:12:06;;;;;;;6.65;2.75;;;18.40;99.90;;;;;;5018829;28;20289;-67
2023/07/03 07:14:31;;;;;;;6.85;2.63;;;18.50;99.90;;;;;;5035350;28;20169;-67
2023/07/03 07:16:59;;;;;;;11.55;3.25;;;18.50;99.90;;;;;;5035252;28;20205;-67
2023/07/03 07:19:25;;;;;;;6.28;2.67;;;18.60;99.90;;;;;;5018661;28;20174;-67
2023/07/03 07:21:51;;;;;;;9.93;3.50;;;18.60;99.90;;;;;;5018281;28;20209;-67
2023/07/03 07:24:24;;;;;;;10.35;3.03;;;18.70;99.90;;;;;;5028363;28;20178;-67
2023/07/03 07:26:59;;;;;;;9.38;3.00;;;18.70;99.90;;;;;;5018432;28;20288;-67
2023/07/03 07:29:25;;;;;;;10.18;3.28;;;18.80;99.90;;;;;;5034966;28;20227;-66
2023/07/03 07:31:55;;;;;;;10.27;3.10;;;18.80;99.90;;;;;;5035025;28;20178;-67
2023/07/03 07:34:21;;;;;;;10.43;3.50;;;18.90;99.90;;;;;;5017934;28;20232;-67
2023/07/03 07:36:47;;;;;;;9.60;3.40;;;18.90;99.90;;;;;;5034868;28;20209;-67
2023/07/03 07:39:12;;;;;;;7.80;2.85;;;19.00;99.90;;;;;;5025423;28;20213;-66
2023/07/03 07:41:38;;;;;;;8.50;3.15;;;19.00;99.90;;;;;;5038029;28;20196;-67
2023/07/03 07:44:04;;;;;;;7.85;2.97;;;19.10;99.90;;;;;;5020437;28;20178;-67
2023/07/03 07:46:36;;;;;;;9.50;3.20;;;19.10;99.90;;;;;;5023356;28;20280;-67
2023/07/03 07:49:02;;;;;;;9.98;3.20;;;19.10;99.90;;;;;;5017641;28;20256;-66
2023/07/03 07:51:28;;;;;;;7.07;2.85;;;19.20;99.90;;;;;;5034060;28;20201;-68
2023/07/03 07:53:55;;;;;;;7.57;3.00;;;19.20;99.90;;;;;;5017935;28;20248;-67
2023/07/03 07:56:24;;;;;;;5.97;2.55;;;19.20;99.90;;;;;;5030542;28;20447;-66
2023/07/03 07:58:52;;;;;;;6.97;2.95;;;19.20;99.90;;;;;;5019934;28;20238;-67
2023/07/03 08:01:18;;;;;;;8.32;2.80;;;19.20;99.90;;;;;;5017769;28;20178;-67
2023/07/03 08:03:44;;;;;;;11.88;3.20;;;19.20;99.90;;;;;;5033843;28;20212;-67
2023/07/03 08:06:14;;;;;;;8.40;2.95;;;19.20;99.90;;;;;;5021986;28;20255;-67
2023/07/03 08:08:42;;;;;;;7.68;2.83;;;19.20;99.90;;;;;;5017793;28;20205;-67
2023/07/03 08:11:09;;;;;;;6.80;2.80;;;19.30;99.90;;;;;;5027702;28;20177;-67
2023/07/03 08:13:36;;;;;;;5.35;2.65;;;19.30;99.90;;;;;;5017775;28;20179;-67
2023/07/03 08:16:02;;;;;;;9.43;3.05;;;19.30;99.90;;;;;;5017743;28;20182;-67
2023/07/03 08:18:28;;;;;;;9.50;3.25;;;19.40;99.90;;;;;;5017548;28;20178;-66
2023/07/03 08:20:57;;;;;;;8.27;3.13;;;19.40;99.90;;;;;;5017788;28;20185;-67
2023/07/03 08:23:24;;;;;;;6.60;3.00;;;19.50;99.90;;;;;;5035197;28;20174;-66
2023/07/03 08:25:52;;;;;;;7.07;2.58;;;19.50;99.90;;;;;;5017344;28;20206;-66
2023/07/03 08:28:17;;;;;;;6.85;2.70;;;19.60;99.90;;;;;;5017167;28;20186;-66
2023/07/03 08:30:43;;;;;;;8.10;2.60;;;19.60;99.90;;;;;;5026970;28;20178;-67
2023/07/03 08:33:11;;;;;;;6.00;2.50;;;19.70;99.90;;;;;;5022293;28;20189;-67
2023/07/03 08:35:44;;;;;;;7.95;2.50;;;19.80;99.90;;;;;;5035726;28;20238;-67
2023/07/03 08:38:13;;;;;;;9.35;2.88;;;19.90;99.90;;;;;;5007725;28;20409;-68
2023/07/03 08:40:38;;;;;;;6.72;2.70;;;20.00;99.90;;;;;;5027267;28;20188;-67
2023/07/03 08:43:07;;;;;;;7.70;2.90;;;20.00;99.90;;;;;;5016645;28;20201;-66
2023/07/03 08:45:38;;;;;;;7.35;2.72;;;20.10;99.90;;;;;;5017297;28;20365;-67
2023/07/03 08:48:12;;;;;;;7.45;3.10;;;20.10;99.90;;;;;;5017043;28;20166;-67
2023/07/03 08:50:41;;;;;;;7.50;2.65;;;20.20;99.90;;;;;;5015880;28;20183;-67
2023/07/03 08:53:14;;;;;;;6.68;2.45;;;20.20;99.90;;;;;;5017722;28;20188;-68
2023/07/03 08:56:01;;;;;;;6.00;2.40;;;20.30;99.90;;;;;;5017417;28;20197;-68
2023/07/03 08:58:29;;;;;;;8.43;3.05;;;20.40;99.90;;;;;;5014384;28;20178;-68
2023/07/03 09:01:09;;;;;;;5.57;2.30;;;20.50;99.90;;;;;;5015002;28;20289;-67
2023/07/03 09:03:42;;;;;;;7.60;3.35;;;20.50;99.90;;;;;;5016722;28;20205;-68
2023/07/03 09:06:08;;;;;;;5.47;2.75;;;20.60;99.90;;;;;;5017028;28;20202;-66
2023/07/03 09:09:03;;;;;;;5.93;2.55;;;20.60;99.90;;;;;;5033290;28;20170;-68
2023/07/03 09:11:36;;;;;;;7.32;2.85;;;20.70;99.90;;;;;;5033509;28;20166;-68
2023/07/03 09:14:04;;;;;;;7.35;3.13;;;20.80;99.90;;;;;;5017158;28;20170;-68
2023/07/03 09:16:30;;;;;;;6.88;2.63;;;20.90;99.90;;;;;;5033673;28;20276;-67
2023/07/03 09:19:11;;;;;;;4.43;2.42;;;20.90;99.90;;;;;;5030176;28;20267;-67
2023/07/03 09:21:40;;;;;;;6.25;2.42;;;21.00;99.90;;;;;;5009382;28;20181;-67
2023/07/03 09:24:16;;;;;;;5.50;2.28;;;21.00;99.90;;;;;;5016406;28;20264;-69
2023/07/03 09:26:49;;;;;;;7.90;2.67;;;21.00;99.90;;;;;;5033404;28;20288;-67
2023/07/03 09:29:15;;;;;;;5.55;2.42;;;21.00;99.90;;;;;;5033394;28;20202;-68
2023/07/03 09:31:45;;;;;;;5.57;2.63;;;21.00;99.90;;;;;;5016776;28;20182;-68
2023/07/03 09:34:11;;;;;;;4.65;2.60;;;21.00;99.90;;;;;;5016985;28;20268;-67
2023/07/03 09:36:41;;;;;;;4.65;2.97;;;21.00;99.90;;;;;;5033355;28;20205;-67
2023/07/03 09:39:11;;;;;;;4.95;2.42;;;21.10;99.90;;;;;;5032892;28;20178;-67
2023/07/03 09:41:38;;;;;;;6.60;2.78;;;21.10;99.90;;;;;;4997430;28;20175;-67
2023/07/03 09:44:12;;;;;;;4.90;2.80;;;21.20;99.50;;;;;;5016085;28;20178;-67
2023/07/03 09:46:41;;;;;;;7.15;2.85;;;21.30;99.20;;;;;;5016502;28;20279;-67
2023/07/03 09:49:28;;;;;;;5.28;3.00;;;21.40;99.20;;;;;;5032785;28;20189;-67
2023/07/03 09:51:57;;;;;;;5.63;2.58;;;21.40;98.30;;;;;;5022726;28;20221;-67
2023/07/03 09:54:27;;;;;;;6.68;2.85;;;21.50;99.30;;;;;;5016528;28;20166;-67
2023/07/03 09:56:54;;;;;;;7.78;2.63;;;21.60;98.70;;;;;;5021709;28;20186;-67
2023/07/03 09:59:22;;;;;;;4.43;2.30;;;21.70;99.90;;;;;;5015763;28;20201;-67
2023/07/03 10:01:57;;;;;;;5.30;2.42;;;21.80;99.90;;;;;;5024151;28;20430;-66
2023/07/03 10:04:23;;;;;;;5.00;2.30;;;21.90;99.50;;;;;;5037092;28;20201;-67
2023/07/03 10:06:58;;;;;;;6.63;2.38;;;22.00;99.50;;;;;;5024669;28;20206;-67
2023/07/03 10:09:30;;;;;;;5.57;2.50;;;22.10;97.90;;;;;;5020080;28;20206;-66
2023/07/03 10:12:11;;;;;;;5.05;2.78;;;22.20;99.00;;;;;;5020223;28;20170;-67
2023/07/03 10:14:54;;;;;;;5.78;2.78;;;22.30;97.90;;;;;;5019970;28;20170;-66
2023/07/03 10:17:31;;;;;;;5.55;2.40;;;22.40;97.30;;;;;;5036946;28;20166;-66
2023/07/03 10:20:03;;;;;;;4.53;2.83;;;22.50;97.80;;;;;;5014070;28;20233;-66
2023/07/03 10:22:31;;;;;;;8.23;2.70;;;22.50;98.10;;;;;;5004741;28;20220;-66
2023/07/03 10:25:08;;;;;;;6.05;2.67;;;22.60;97.90;;;;;;5019391;28;20309;-67
2023/07/03 10:27:35;;;;;;;5.85;2.67;;;22.60;97.40;;;;;;5019306;28;20286;-66
2023/07/03 10:30:05;;;;;;;5.43;2.67;;;22.60;96.80;;;;;;5023162;28;20192;-67
2023/07/03 10:32:33;;;;;;;5.00;2.58;;;22.70;96.70;;;;;;5023501;28;20238;-67
2023/07/03 10:35:18;;;;;;;6.70;2.78;;;22.70;96.10;;;;;;5019224;28;20185;-66
2023/07/03 10:38:12;;;;;;;5.30;2.50;;;22.70;94.60;;;;;;5020099;28;20173;-66
2023/07/03 10:40:47;;;;;;;6.70;2.97;;;22.70;94.70;;;;;;5012613;28;20178;-67
2023/07/03 10:43:15;;;;;;;4.93;2.85;;;22.80;95.00;;;;;;5019537;28;20478;-66
2023/07/03 10:45:43;;;;;;;5.65;2.58;;;22.80;95.50;;;;;;5035344;28;20201;-66
2023/07/03 10:48:20;;;;;;;6.03;2.90;;;22.90;95.20;;;;;;5018495;28;20285;-66
2023/07/03 10:51:02;;;;;;;5.85;2.83;;;22.80;94.10;;;;;;5018848;28;20262;-67
2023/07/03 10:53:46;;;;;;;6.38;2.85;;;22.80;93.50;;;;;;5015604;28;20232;-66
2023/07/03 10:56:17;;;;;;;6.97;3.20;;;22.80;94.90;;;;;;5035513;28;20213;-66
2023/07/03 10:59:05;;;;;;;3.90;2.05;;;22.80;94.90;;;;;;5028038;28;20170;-66
2023/07/03 11:01:44;;;;;;;4.38;2.22;;;22.80;94.60;;;;;;5019263;28;20201;-67
2023/07/03 11:04:30;;;;;;;4.93;2.28;;;22.80;94.30;;;;;;5035625;28;20173;-67
2023/07/03 11:07:17;;;;;;;6.80;2.40;;;22.90;94.80;;;;;;5036402;28;20206;-67
2023/07/03 11:10:08;;;;;;;5.65;2.70;;;22.90;94.90;;;;;;4999693;28;20177;-67
2023/07/03 11:12:51;;;;;;;4.05;2.25;;;22.90;94.30;;;;;;5015940;28;20194;-67
2023/07/03 11:15:28;;;;;;;5.47;2.72;;;22.90;94.70;;;;;;5028682;28;20174;-67
2023/07/03 11:18:23;;;;;;;5.47;2.60;;;22.90;93.90;;;;;;5019544;28;20201;-68
2023/07/03 11:21:07;;;;;;;4.75;2.40;;;22.90;94.30;;;;;;5018949;28;20503;-68
2023/07/03 11:23:59;;;;;;;6.28;2.83;;;22.80;93.50;;;;;;5036066;28;20198;-66
2023/07/03 11:26:42;;;;;;;5.00;2.78;;;22.80;93.00;;;;;;5030942;28;20260;-65
2023/07/03 11:29:15;;;;;;;4.75;2.65;;;22.70;92.50;;;;;;5018978;28;20223;-68
2023/07/03 11:31:43;;;;;;;5.55;2.30;;;22.70;93.40;;;;;;5044711;28;20174;-68
2023/07/03 11:34:12;;;;;;;5.47;2.47;;;22.70;93.30;;;;;;5025950;28;20247;-67
2023/07/03 11:36:45;;;;;;;5.18;2.95;;;22.70;92.00;;;;;;5018139;28;20185;-66
2023/07/03 11:39:28;;;;;;;3.67;2.28;;;22.70;91.90;;;;;;5018462;28;20174;-66
2023/07/03 11:42:05;;;;;;;4.93;2.13;;;22.60;91.60;;;;;;5035199;28;20198;-67
2023/07/03 11:44:40;;;;;;;4.80;2.28;;;22.60;92.40;;;;;;5002978;28;20280;-68
2023/07/03 11:47:11;;;;;;;5.82;2.78;;;22.70;92.20;;;;;;5017619;28;20205;-68
2023/07/03 11:49:46;;;;;;;4.45;2.38;;;22.70;92.10;;;;;;5014597;28;20194;-68
2023/07/03 11:52:27;;;;;;;6.15;2.70;;;22.80;92.50;;;;;;5033119;28;20197;-67
2023/07/03 11:55:10;;;;;;;4.93;2.58;;;22.90;91.80;;;;;;5018031;28;20181;-65
2023/07/03 11:57:41;;;;;;;4.25;2.13;;;23.00;92.20;;;;;;5032421;28;20185;-67
2023/07/03 12:00:22;;;;;;;10.88;3.30;;;23.10;92.80;;;;;;4999026;28;20175;-66
2023/07/03 12:02:55;;;;;;;5.88;2.78;;;23.20;90.20;;;;;;5014594;28;20170;-66
2023/07/03 12:05:42;;;;;;;6.22;2.63;;;23.30;90.80;;;;;;5014407;28;20212;-67
2023/07/03 12:08:20;;;;;;;6.70;3.03;;;23.30;89.90;;;;;;5016149;28;20179;-67
2023/07/03 12:10:57;;;;;;;6.72;2.78;;;23.40;90.30;;;;;;5003800;28;20206;-67
2023/07/03 12:13:46;;;;;;;4.80;2.55;;;23.50;88.60;;;;;;5016375;28;20243;-67
2023/07/03 12:16:17;;;;;;;6.75;2.70;;;23.50;89.10;;;;;;5018129;28;20341;-66
2023/07/03 12:18:43;;;;;;;6.82;3.03;;;23.50;88.50;;;;;;5014364;28;20163;-67
2023/07/03 12:21:08;;;;;;;3.70;2.22;;;23.50;88.50;;;;;;5017264;28;20221;-66
2023/07/03 12:23:43;;;;;;;5.75;2.70;;;23.40;89.00;;;;;;5018293;28;20255;-66
2023/07/03 12:26:12;;;;;;;5.65;2.67;;;23.40;88.80;;;;;;5016577;28;20205;-67
2023/07/03 12:28:38;;;;;;;3.58;2.50;;;23.40;90.00;;;;;;5006211;28;20174;-64
2023/07/03 12:31:13;;;;;;;4.03;2.33;;;23.50;90.90;;;;;;5009740;28;20189;-68
2023/07/03 12:33:59;;;;;;;5.03;2.30;;;23.60;90.50;;;;;;5017507;28;20200;-68
2023/07/03 12:36:29;;;;;;;5.03;2.58;;;23.80;90.40;;;;;;5011709;28;20182;-67
2023/07/03 12:38:56;;;;;;;3.75;2.28;;;23.90;91.70;;;;;;5016849;28;20211;-67
2023/07/03 12:41:31;;;;;;;5.22;2.75;;;24.00;92.00;;;;;;5018306;28;20177;-68
2023/07/03 12:43:58;;;;;;;4.05;2.30;;;24.20;91.90;;;;;;5017427;28;20177;-65
2023/07/03 12:46:30;;;;;;;3.75;2.10;;;24.30;91.70;;;;;;5000990;28;20198;-66
2023/07/03 12:49:08;;;;;;;5.03;2.33;;;24.40;91.00;;;;;;5239763;22;20611;-66
2023/07/03 12:51:39;;;;;;;3.60;2.50;;;24.50;90.70;;;;;;5017232;28;20205;-67
2023/07/03 12:54:08;;;;;;;4.65;2.63;;;24.50;90.70;;;;;;5040176;28;20185;-67
2023/07/03 12:56:35;;;;;;;4.43;3.03;;;24.60;90.70;;;;;;5020476;28;20191;-67
2023/07/03 12:59:01;;;;;;;6.43;2.88;;;24.60;90.10;;;;;;5026906;28;20201;-65